Time;durP1;ratioP1;P1;durP2;ratioP2;P2;SDS_P1;SDS_P2;PMS_P1;PMS_P2;Temp;Humidity;BMP_temperature;BMP_pressure;BME280_temperature;BME280_humidity;BME280_pressure;Samples;Min_cycle;Max_cycle;Signal;HPM_P1;HPM_P2
2021/12/05 00:24:14;;;;;;;17.07;4.50;;;5.00;67.80;;;;;;5016187;28;20404;-74
2021/12/05 00:26:45;;;;;;;13.75;4.10;;;5.10;66.00;;;;;;5021095;28;20421;-73
2021/12/05 00:34:57;;;;;;;17.00;4.25;;;5.40;63.30;;;;;;5021459;28;20415;-75
2021/12/05 00:38:01;;;;;;;14.85;4.22;;;5.40;62.60;;;;;;5013585;28;20403;-75
2021/12/05 00:45:42;;;;;;;12.05;3.67;;;5.60;59.60;;;;;;5010774;28;20834;-75
2021/12/05 00:54:05;;;;;;;20.55;3.30;;;5.40;61.40;;;;;;5022680;28;20436;-73
2021/12/05 01:12:19;;;;;;;11.43;3.50;;;5.40;61.00;;;;;;5020659;28;20384;-75
2021/12/05 01:17:19;;;;;;;10.83;3.30;;;5.30;60.70;;;;;;5025658;28;20399;-76
2021/12/05 01:19:46;;;;;;;15.10;3.35;;;5.30;61.60;;;;;;5024372;28;20388;-75
2021/12/05 01:22:13;;;;;;;17.25;4.10;;;5.30;62.60;;;;;;5021351;28;20500;-76
2021/12/05 01:25:01;;;;;;;14.35;3.80;;;5.20;63.30;;;;;;5020992;28;20397;-76
2021/12/05 01:27:38;;;;;;;8.97;3.03;;;5.30;63.70;;;;;;5022676;28;20397;-75
2021/12/05 01:30:15;;;;;;;11.85;4.00;;;5.30;64.20;;;;;;5022761;28;20396;-74
2021/12/05 01:38:02;;;;;;;10.80;3.80;;;5.30;64.10;;;;;;5025568;28;20409;-75
2021/12/05 01:54:06;;;;;;;18.75;4.70;;;5.50;60.00;;;;;;5014509;28;20404;-75
2021/12/05 01:59:30;;;;;;;9.73;3.28;;;5.50;58.80;;;;;;4993273;28;20909;-70
2021/12/05 02:16:04;;;;;;;17.23;4.25;;;5.20;61.90;;;;;;4954374;28;20404;-71
2021/12/05 02:32:34;;;;;;;18.02;4.20;;;5.10;62.90;;;;;;4974430;28;20416;-70
2021/12/05 02:40:49;;;;;;;19.08;4.00;;;4.90;65.80;;;;;;4973514;28;20768;-70
2021/12/05 02:43:25;;;;;;;13.20;3.47;;;4.80;66.10;;;;;;4972914;28;20487;-70
2021/12/05 02:45:53;;;;;;;13.05;3.50;;;4.70;67.90;;;;;;4973416;28;20419;-71
2021/12/05 02:48:21;;;;;;;13.25;3.30;;;4.70;68.00;;;;;;4973152;28;20491;-70
2021/12/05 02:50:47;;;;;;;13.00;3.70;;;4.80;69.20;;;;;;4972945;28;20436;-70
2021/12/05 02:53:27;;;;;;;16.23;4.20;;;4.80;67.80;;;;;;4987847;28;20919;-70
2021/12/05 02:55:53;;;;;;;12.77;4.60;;;4.80;68.30;;;;;;4972935;28;20420;-71
2021/12/05 03:01:06;;;;;;;11.07;3.88;;;4.90;67.10;;;;;;4972758;28;20424;-70
2021/12/05 03:03:32;;;;;;;24.60;3.90;;;4.80;67.70;;;;;;4972636;28;20506;-70
2021/12/05 03:06:20;;;;;;;16.50;3.85;;;4.80;65.90;;;;;;4972720;28;20393;-71
2021/12/05 03:08:48;;;;;;;12.43;3.72;;;4.90;66.90;;;;;;4972762;28;20384;-72
2021/12/05 03:11:14;;;;;;;19.10;3.43;;;4.90;66.00;;;;;;4987517;28;20847;-71
2021/12/05 03:13:41;;;;;;;9.90;3.85;;;4.90;66.40;;;;;;4971657;28;20415;-71
2021/12/05 03:16:10;;;;;;;15.50;3.65;;;4.90;66.60;;;;;;4972271;28;20388;-71
2021/12/05 03:18:35;;;;;;;9.70;3.30;;;5.10;63.50;;;;;;4972294;28;20893;-72
2021/12/05 03:21:04;;;;;;;11.43;2.97;;;5.10;63.80;;;;;;4971313;28;20390;-71
2021/12/05 03:23:30;;;;;;;13.15;3.45;;;5.10;62.40;;;;;;4972278;28;20416;-71
2021/12/05 03:25:56;;;;;;;16.63;3.70;;;5.10;62.30;;;;;;4972460;28;20754;-71
2021/12/05 03:28:23;;;;;;;12.25;3.40;;;5.10;61.80;;;;;;4972618;28;20629;-70
2021/12/05 03:30:49;;;;;;;14.85;4.10;;;5.10;62.00;;;;;;4971853;28;20406;-70
2021/12/05 03:33:15;;;;;;;18.00;4.20;;;5.10;62.40;;;;;;4972100;28;20881;-70
2021/12/05 03:35:41;;;;;;;17.75;3.90;;;5.10;63.20;;;;;;4972215;28;20415;-70
2021/12/05 03:38:07;;;;;;;8.30;3.20;;;4.90;62.70;;;;;;4972235;28;20384;-70
2021/12/05 03:40:33;;;;;;;15.52;4.05;;;4.90;65.20;;;;;;4971760;28;20760;-70
2021/12/05 03:43:02;;;;;;;11.48;2.95;;;4.90;64.30;;;;;;4972065;28;20535;-70
2021/12/05 03:45:33;;;;;;;8.05;3.10;;;4.80;64.40;;;;;;4972165;28;20434;-71
2021/12/05 03:47:59;;;;;;;20.52;3.45;;;4.80;63.90;;;;;;4972427;28;20396;-71
2021/12/05 03:50:26;;;;;;;16.38;3.25;;;4.70;65.70;;;;;;4972295;28;20979;-71
2021/12/05 03:52:52;;;;;;;14.82;3.60;;;4.70;65.20;;;;;;4967601;28;20430;-71
2021/12/05 03:55:18;;;;;;;11.63;3.40;;;4.80;65.10;;;;;;4952866;28;20469;-71
2021/12/05 03:57:44;;;;;;;13.55;3.47;;;4.70;65.70;;;;;;4952809;28;20397;-71
2021/12/05 04:00:15;;;;;;;18.13;3.60;;;4.70;66.60;;;;;;4966415;28;20768;-71
2021/12/05 04:02:41;;;;;;;12.45;2.95;;;4.60;67.50;;;;;;4986908;28;20412;-71
2021/12/05 04:05:07;;;;;;;11.93;3.10;;;4.50;67.90;;;;;;4970416;28;20408;-71
2021/12/05 04:07:32;;;;;;;17.37;3.30;;;4.40;69.00;;;;;;4972314;28;20426;-71
2021/12/05 04:09:58;;;;;;;16.90;3.92;;;4.30;70.40;;;;;;4971672;28;20411;-71
2021/12/05 04:12:24;;;;;;;9.05;3.45;;;4.20;73.40;;;;;;4971636;28;20483;-71
2021/12/05 04:14:54;;;;;;;13.00;3.90;;;4.20;74.40;;;;;;4971619;28;20399;-71
2021/12/05 04:17:21;;;;;;;17.65;3.70;;;4.10;74.60;;;;;;4971749;28;20400;-71
2021/12/05 04:19:47;;;;;;;13.52;3.90;;;4.10;75.30;;;;;;4971669;28;20419;-71
2021/12/05 04:22:13;;;;;;;15.48;3.70;;;4.00;77.80;;;;;;4971850;28;20396;-71
2021/12/05 04:24:39;;;;;;;15.87;3.73;;;4.10;76.40;;;;;;4972352;28;20407;-69
2021/12/05 04:27:05;;;;;;;13.83;3.20;;;4.00;76.90;;;;;;4977748;28;20830;-70
2021/12/05 04:29:33;;;;;;;11.13;3.30;;;3.90;78.60;;;;;;4976351;28;20885;-71
2021/12/05 04:31:58;;;;;;;13.50;3.80;;;3.90;78.30;;;;;;4977677;28;20457;-70
2021/12/05 04:34:24;;;;;;;16.42;3.53;;;3.90;79.00;;;;;;4980347;28;20387;-70
2021/12/05 04:36:56;;;;;;;11.52;3.10;;;4.00;79.70;;;;;;4981733;28;20763;-72
2021/12/05 04:39:22;;;;;;;16.58;3.03;;;4.10;79.50;;;;;;4982432;28;20398;-70
2021/12/05 04:41:48;;;;;;;14.55;3.33;;;4.10;78.40;;;;;;4983543;28;20392;-71
2021/12/05 04:44:13;;;;;;;13.68;2.92;;;4.20;78.20;;;;;;4984783;28;20415;-70
2021/12/05 04:46:39;;;;;;;20.50;3.90;;;4.30;75.00;;;;;;4984672;28;20419;-70
2021/12/05 04:49:07;;;;;;;18.90;3.60;;;4.40;73.70;;;;;;4977594;28;20399;-71
2021/12/05 04:51:36;;;;;;;15.90;2.92;;;4.40;71.30;;;;;;4975058;28;20410;-71
2021/12/05 04:54:04;;;;;;;8.57;2.20;;;4.50;68.80;;;;;;4975172;28;20913;-72
2021/12/05 04:56:30;;;;;;;9.13;2.78;;;4.50;68.20;;;;;;4974450;28;20822;-72
2021/12/05 04:58:57;;;;;;;8.98;2.88;;;4.30;68.80;;;;;;4977708;28;20403;-72
2021/12/05 05:01:24;;;;;;;12.30;2.85;;;4.30;69.60;;;;;;4976701;28;20408;-70
2021/12/05 05:03:51;;;;;;;10.98;2.60;;;4.30;69.40;;;;;;4973523;28;20404;-72
2021/12/05 05:06:20;;;;;;;12.20;3.00;;;4.30;68.40;;;;;;4974878;28;20392;-72
2021/12/05 05:08:53;;;;;;;13.05;2.67;;;4.30;68.90;;;;;;4974842;28;20427;-69
2021/12/05 05:11:21;;;;;;;8.30;2.40;;;4.40;67.00;;;;;;4974597;28;20451;-70
2021/12/05 05:13:50;;;;;;;10.68;2.65;;;4.50;64.20;;;;;;4974827;28;20396;-70
2021/12/05 05:16:17;;;;;;;10.38;2.45;;;4.40;64.40;;;;;;4975768;28;20919;-70
2021/12/05 05:18:50;;;;;;;8.45;2.80;;;4.40;65.20;;;;;;4974902;28;20869;-70
2021/12/05 05:47:59;;;;;;;11.10;2.60;;;4.50;62.90;;;;;;4974135;28;20503;-69
2021/12/05 05:50:25;;;;;;;14.23;2.55;;;4.60;61.30;;;;;;4973935;28;20761;-70
2021/12/05 05:52:51;;;;;;;11.10;2.80;;;4.60;61.30;;;;;;4973927;28;20411;-70
2021/12/05 05:55:16;;;;;;;9.70;2.83;;;4.70;59.80;;;;;;4973629;28;20528;-70
2021/12/05 05:58:08;;;;;;;9.93;2.65;;;4.80;59.50;;;;;;4973976;28;20396;-72
2021/12/05 06:00:35;;;;;;;7.35;2.60;;;4.80;57.90;;;;;;4973655;28;20416;-69
2021/12/05 06:05:54;;;;;;;13.77;2.88;;;4.90;58.80;;;;;;4973758;28;20421;-71
2021/12/05 06:08:23;;;;;;;11.80;2.75;;;4.90;57.00;;;;;;4973551;28;20396;-71
2021/12/05 06:10:50;;;;;;;9.45;2.70;;;5.00;56.50;;;;;;4973533;28;20443;-71
2021/12/05 06:13:18;;;;;;;9.60;2.45;;;5.00;56.10;;;;;;4973357;28;20752;-71
2021/12/05 06:15:44;;;;;;;17.25;2.63;;;5.10;56.20;;;;;;4973633;28;20388;-71
2021/12/05 06:18:10;;;;;;;15.73;2.60;;;5.20;53.40;;;;;;4973736;28;20476;-71
2021/12/05 06:20:35;;;;;;;8.10;2.30;;;5.20;54.20;;;;;;4973430;28;20562;-71
2021/12/05 06:23:01;;;;;;;5.63;2.10;;;5.30;52.80;;;;;;4972699;28;20756;-71
2021/12/05 06:25:30;;;;;;;10.27;2.90;;;5.30;53.10;;;;;;4973480;28;20415;-70
2021/12/05 06:28:01;;;;;;;9.80;2.60;;;5.30;53.50;;;;;;4973335;28;20905;-70
2021/12/05 06:48:49;;;;;;;9.50;3.30;;;5.30;54.30;;;;;;4973160;28;20407;-70
2021/12/05 06:51:20;;;;;;;12.02;3.00;;;5.20;54.80;;;;;;4972250;28;20885;-70
2021/12/05 06:53:46;;;;;;;10.55;2.70;;;5.10;55.20;;;;;;4953994;28;20804;-70
2021/12/05 06:56:12;;;;;;;11.23;2.53;;;5.10;55.20;;;;;;4953408;28;20504;-70
2021/12/05 06:58:38;;;;;;;9.93;3.55;;;5.10;55.80;;;;;;4954029;28;20493;-70
2021/12/05 07:01:07;;;;;;;11.60;2.53;;;5.00;55.50;;;;;;4966613;28;20404;-71
2021/12/05 07:03:33;;;;;;;10.55;2.78;;;5.00;55.90;;;;;;4972679;28;20412;-70
2021/12/05 07:06:03;;;;;;;9.23;3.17;;;4.90;56.80;;;;;;4972293;28;20400;-70
2021/12/05 07:08:33;;;;;;;10.20;2.92;;;4.80;57.50;;;;;;4973007;28;20419;-70
2021/12/05 07:16:10;;;;;;;10.80;2.78;;;4.70;59.70;;;;;;4972958;28;20388;-71
2021/12/05 07:18:54;;;;;;;12.32;2.90;;;4.80;58.90;;;;;;4971627;28;20890;-69
2021/12/05 07:43:07;;;;;;;10.15;2.88;;;5.20;52.60;;;;;;4988688;28;20401;-68
2021/12/05 07:45:41;;;;;;;6.20;3.10;;;5.40;52.00;;;;;;4989733;28;20997;-70
2021/12/05 07:48:12;;;;;;;6.70;2.30;;;5.40;51.60;;;;;;4980172;28;20415;-70
2021/12/05 07:50:53;;;;;;;7.18;2.45;;;5.40;51.70;;;;;;4972888;28;20392;-71
2021/12/05 07:53:38;;;;;;;10.98;2.60;;;5.40;52.10;;;;;;4972110;28;20393;-70
2021/12/05 07:56:12;;;;;;;8.75;2.83;;;5.40;52.10;;;;;;5000501;23;20427;-72
2021/12/05 08:14:46;;;;;;;13.05;3.55;;;5.60;50.60;;;;;;5024265;28;20390;-74
2021/12/05 08:17:17;;;;;;;11.50;2.80;;;5.60;50.20;;;;;;5030545;28;20405;-74
2021/12/05 08:19:43;;;;;;;10.30;3.30;;;5.60;50.10;;;;;;5033788;28;20474;-75
2021/12/05 08:22:09;;;;;;;10.35;2.85;;;5.60;50.70;;;;;;5026700;28;20499;-74
2021/12/05 08:24:37;;;;;;;13.65;3.00;;;5.70;50.40;;;;;;5027387;28;20472;-75
2021/12/05 08:27:05;;;;;;;7.03;2.90;;;5.70;51.20;;;;;;5016499;28;20395;-76
2021/12/05 08:29:40;;;;;;;9.93;3.08;;;5.70;51.70;;;;;;5018073;28;20405;-75
2021/12/05 08:35:17;;;;;;;6.80;3.20;;;5.70;52.20;;;;;;5015454;28;20469;-77
2021/12/05 08:44:31;;;;;;;8.68;3.40;;;5.70;54.70;;;;;;4994991;28;20951;-76
2021/12/05 09:20:18;;;;;;;7.18;3.20;;;6.00;55.00;;;;;;5019004;28;20407;-76
2021/12/05 09:23:05;;;;;;;8.75;3.40;;;6.10;54.00;;;;;;5020016;28;20461;-76
2021/12/05 09:25:41;;;;;;;4.65;3.30;;;6.10;54.90;;;;;;5030417;28;20498;-78
2021/12/05 09:30:55;;;;;;;9.98;3.20;;;6.00;55.60;;;;;;5036506;28;20395;-75
2021/12/05 09:39:25;;;;;;;7.13;2.97;;;6.00;57.70;;;;;;5035812;28;20503;-75
2021/12/05 09:51:11;;;;;;;5.57;3.35;;;6.00;58.00;;;;;;5028487;28;20443;-76
2021/12/05 10:01:53;;;;;;;7.78;3.30;;;6.00;61.50;;;;;;5023941;28;20427;-76
2021/12/05 10:09:37;;;;;;;9.87;3.30;;;6.20;57.80;;;;;;5020765;28;20765;-77
2021/12/05 10:37:14;;;;;;;6.57;3.58;;;6.70;57.30;;;;;;5037002;28;20417;-74
2021/12/05 10:39:40;;;;;;;7.18;3.70;;;6.80;56.30;;;;;;5035147;28;20393;-73
2021/12/05 10:42:35;;;;;;;6.45;3.65;;;6.80;53.90;;;;;;5035394;28;20410;-73
2021/12/05 10:45:02;;;;;;;4.35;2.90;;;7.00;54.70;;;;;;5034376;28;20463;-77
2021/12/05 10:47:45;;;;;;;6.72;3.20;;;7.20;53.10;;;;;;5042541;28;20406;-76
2021/12/05 10:50:37;;;;;;;10.37;4.00;;;7.20;51.30;;;;;;5046638;28;20389;-75
2021/12/05 10:53:27;;;;;;;5.60;3.03;;;7.40;50.80;;;;;;5037725;28;20438;-72
2021/12/05 10:56:11;;;;;;;6.28;2.95;;;7.40;50.50;;;;;;5024512;28;20396;-73
2021/12/05 10:58:56;;;;;;;5.50;2.90;;;7.50;48.70;;;;;;5027001;28;20527;-73
2021/12/05 11:01:34;;;;;;;6.53;2.60;;;7.50;48.80;;;;;;5034126;28;20470;-74
2021/12/05 11:04:13;;;;;;;5.63;2.85;;;7.50;49.00;;;;;;5020319;28;20446;-73
2021/12/05 11:06:54;;;;;;;6.00;2.38;;;7.60;48.40;;;;;;5015679;28;20520;-73
2021/12/05 11:09:29;;;;;;;6.30;2.70;;;7.60;47.70;;;;;;5019271;28;20381;-73
2021/12/05 11:12:03;;;;;;;3.53;2.78;;;7.60;46.80;;;;;;5014528;28;20387;-73
2021/12/05 11:14:34;;;;;;;7.82;3.00;;;7.60;46.00;;;;;;5013376;28;20730;-73
2021/12/05 11:17:02;;;;;;;6.40;3.30;;;7.50;46.60;;;;;;5020962;28;20922;-75
2021/12/05 11:19:32;;;;;;;6.45;2.90;;;7.50;47.00;;;;;;5032120;28;20401;-72
2021/12/05 11:22:02;;;;;;;7.93;2.70;;;7.40;47.10;;;;;;5041150;28;20408;-74
2021/12/05 11:24:32;;;;;;;7.10;3.00;;;7.40;47.80;;;;;;5042713;28;20490;-73
2021/12/05 11:27:23;;;;;;;5.57;2.22;;;7.30;49.10;;;;;;5033390;28;20394;-73
2021/12/05 11:29:50;;;;;;;3.50;2.65;;;7.30;49.20;;;;;;5035440;28;20407;-73
2021/12/05 11:32:32;;;;;;;7.78;3.25;;;7.40;48.50;;;;;;5032521;28;20900;-72
2021/12/05 11:35:08;;;;;;;5.50;2.90;;;7.50;48.80;;;;;;5017433;28;20475;-76
2021/12/05 11:37:55;;;;;;;4.18;3.15;;;7.50;49.00;;;;;;5025983;28;20457;-77
2021/12/05 11:40:23;;;;;;;6.13;3.00;;;7.60;49.20;;;;;;5034774;28;20403;-78
2021/12/05 11:43:02;;;;;;;5.00;3.35;;;7.70;48.60;;;;;;5034001;28;20410;-77
2021/12/05 11:45:29;;;;;;;6.97;2.90;;;7.70;48.30;;;;;;5035654;28;20417;-78
2021/12/05 11:47:56;;;;;;;7.90;4.10;;;7.80;47.50;;;;;;5026713;28;20447;-76
2021/12/05 11:50:35;;;;;;;8.35;3.00;;;7.90;47.20;;;;;;5026447;28;20807;-77
2021/12/05 11:53:02;;;;;;;4.95;2.92;;;7.90;45.50;;;;;;5029808;28;20408;-77
2021/12/05 11:55:32;;;;;;;6.50;2.97;;;7.90;46.30;;;;;;5038130;28;20847;-77
2021/12/05 11:57:59;;;;;;;10.23;4.30;;;8.10;46.00;;;;;;5036919;28;20401;-78
2021/12/05 12:00:26;;;;;;;9.40;3.50;;;8.10;46.10;;;;;;5031268;28;20394;-77
2021/12/05 12:02:52;;;;;;;6.72;3.63;;;8.10;46.30;;;;;;5036872;28;20404;-77
2021/12/05 12:05:26;;;;;;;4.40;2.67;;;8.00;46.50;;;;;;5036114;28;20478;-76
2021/12/05 12:08:03;;;;;;;4.82;2.20;;;8.00;43.70;;;;;;5024932;28;20428;-76
2021/12/05 12:10:37;;;;;;;3.95;2.10;;;8.00;42.70;;;;;;5041141;28;20401;-77
2021/12/05 12:13:10;;;;;;;2.97;2.05;;;8.00;42.40;;;;;;5021499;28;20795;-76
2021/12/05 12:15:36;;;;;;;3.97;2.22;;;8.00;41.00;;;;;;5033522;28;20400;-76
2021/12/05 12:18:13;;;;;;;4.82;2.28;;;8.10;39.80;;;;;;5019237;28;20408;-75
2021/12/05 12:20:40;;;;;;;8.43;2.03;;;8.20;39.00;;;;;;5020635;28;20393;-77
2021/12/05 12:23:06;;;;;;;4.97;2.70;;;8.30;39.50;;;;;;5031138;28;20862;-76
2021/12/05 12:25:36;;;;;;;5.63;2.40;;;8.30;40.70;;;;;;5019007;28;20435;-74
2021/12/05 12:28:03;;;;;;;8.30;3.33;;;8.40;41.20;;;;;;5051873;28;20404;-77
2021/12/05 12:30:33;;;;;;;6.63;3.03;;;8.50;41.00;;;;;;5040791;28;20452;-76
2021/12/05 12:33:05;;;;;;;6.10;2.75;;;8.50;40.40;;;;;;5032538;28;20406;-76
2021/12/05 12:35:33;;;;;;;3.58;2.25;;;8.50;40.10;;;;;;5048521;28;20397;-76
2021/12/05 12:38:01;;;;;;;5.85;2.65;;;8.40;39.70;;;;;;5021403;28;20953;-76
2021/12/05 12:40:38;;;;;;;2.70;2.00;;;8.40;39.20;;;;;;5041910;28;20410;-76
2021/12/05 12:43:06;;;;;;;5.60;1.95;;;8.40;38.40;;;;;;5024712;28;20470;-76
2021/12/05 12:45:38;;;;;;;4.60;2.30;;;8.40;38.60;;;;;;5040887;28;20466;-76
2021/12/05 12:48:11;;;;;;;3.83;2.50;;;8.40;39.40;;;;;;5053403;28;20952;-76
2021/12/05 12:50:52;;;;;;;3.53;2.40;;;8.30;39.70;;;;;;5043751;28;20408;-77
2021/12/05 12:53:27;;;;;;;6.43;2.15;;;8.40;39.60;;;;;;5043711;28;20416;-76
2021/12/05 12:56:02;;;;;;;5.32;2.90;;;8.50;38.60;;;;;;5034741;28;20470;-73
2021/12/05 12:58:45;;;;;;;3.73;1.90;;;8.50;39.30;;;;;;5050939;28;20468;-76
2021/12/05 13:01:32;;;;;;;4.00;2.30;;;8.70;38.00;;;;;;5039315;28;20394;-76
2021/12/05 13:10:08;;;;;;;2.55;1.92;;;8.40;38.80;;;;;;5050560;28;20412;-76
2021/12/05 13:12:47;;;;;;;3.25;2.15;;;8.30;38.60;;;;;;5052134;28;20585;-77
2021/12/05 13:15:20;;;;;;;4.50;2.30;;;8.30;39.30;;;;;;5020102;28;20897;-76
2021/12/05 13:18:00;;;;;;;3.85;2.20;;;8.10;40.00;;;;;;5019932;28;20392;-75
2021/12/05 13:20:43;;;;;;;3.03;2.27;;;8.10;40.20;;;;;;5031937;28;20404;-76
2021/12/05 13:23:14;;;;;;;4.53;2.63;;;8.00;40.70;;;;;;5047832;28;20425;-77
2021/12/05 13:25:58;;;;;;;6.38;3.00;;;7.90;41.10;;;;;;5035863;28;20481;-77
2021/12/05 13:28:36;;;;;;;3.17;2.05;;;7.90;40.90;;;;;;5045363;28;20405;-77
2021/12/05 13:31:27;;;;;;;3.35;1.90;;;7.80;41.30;;;;;;5051158;28;20436;-76
2021/12/05 13:34:26;;;;;;;6.93;2.08;;;7.80;41.30;;;;;;5049679;28;20445;-75
2021/12/05 13:37:05;;;;;;;3.40;2.00;;;7.60;41.90;;;;;;5054631;28;20878;-76
2021/12/05 13:39:56;;;;;;;3.50;2.20;;;7.50;43.50;;;;;;5049427;28;20496;-76
2021/12/05 13:42:35;;;;;;;4.43;1.77;;;7.50;43.50;;;;;;5039837;28;20386;-77
2021/12/05 13:45:00;;;;;;;2.88;2.10;;;7.50;43.40;;;;;;5056767;28;20412;-75
2021/12/05 13:47:41;;;;;;;3.30;1.80;;;7.50;44.70;;;;;;5056851;28;20382;-75
2021/12/05 13:50:33;;;;;;;3.40;2.22;;;7.50;45.30;;;;;;5058877;28;20433;-76
2021/12/05 13:53:01;;;;;;;5.47;2.65;;;7.40;45.40;;;;;;5052373;28;20465;-76
2021/12/05 13:55:45;;;;;;;4.57;2.42;;;7.40;46.90;;;;;;5042860;28;20383;-77
2021/12/05 13:58:32;;;;;;;4.00;2.00;;;7.40;46.90;;;;;;5046016;28;20445;-76
2021/12/05 14:01:07;;;;;;;6.25;3.28;;;7.50;46.40;;;;;;5047320;28;20844;-75
2021/12/05 14:03:47;;;;;;;4.82;2.70;;;7.50;46.60;;;;;;5065474;28;20389;-75
2021/12/05 14:06:39;;;;;;;6.40;2.75;;;7.60;46.60;;;;;;5064791;28;20388;-76
2021/12/05 14:09:08;;;;;;;5.78;3.33;;;7.50;47.20;;;;;;5061396;28;20381;-76
2021/12/05 14:11:37;;;;;;;6.43;3.40;;;7.50;47.60;;;;;;5051793;28;20405;-76
2021/12/05 14:14:06;;;;;;;4.53;3.03;;;7.50;48.40;;;;;;5056288;28;20389;-76
2021/12/05 14:16:37;;;;;;;5.03;2.92;;;7.50;49.10;;;;;;5078755;28;20482;-74
2021/12/05 14:19:10;;;;;;;5.68;4.32;;;7.50;49.30;;;;;;5060529;28;20431;-76
2021/12/05 14:21:45;;;;;;;8.70;3.37;;;7.60;48.30;;;;;;5046870;28;20584;-75
2021/12/05 14:24:12;;;;;;;5.00;3.22;;;7.70;47.10;;;;;;5039540;28;20419;-75
2021/12/05 14:26:40;;;;;;;4.50;3.60;;;7.70;47.30;;;;;;5018189;28;20758;-76
2021/12/05 14:29:12;;;;;;;9.20;3.50;;;7.80;46.50;;;;;;5013707;28;20393;-74
2021/12/05 14:31:47;;;;;;;5.13;3.20;;;7.70;46.50;;;;;;5031617;28;20406;-75
2021/12/05 14:34:13;;;;;;;5.18;2.92;;;7.90;45.20;;;;;;5039032;28;20405;-76
2021/12/05 14:36:44;;;;;;;5.55;2.80;;;7.80;44.50;;;;;;5033550;28;20453;-76
2021/12/05 14:39:35;;;;;;;4.20;2.78;;;7.70;45.10;;;;;;5038428;28;20909;-77
2021/12/05 14:42:07;;;;;;;4.10;2.88;;;7.70;44.90;;;;;;5040458;28;20503;-78
2021/12/05 14:44:35;;;;;;;4.47;2.53;;;7.60;45.30;;;;;;5028452;28;20432;-76
2021/12/05 14:47:07;;;;;;;4.00;3.30;;;7.60;45.60;;;;;;5033091;28;20590;-74
2021/12/05 14:49:40;;;;;;;5.10;3.17;;;7.50;45.50;;;;;;5044304;28;20409;-74
2021/12/05 14:52:09;;;;;;;3.67;2.60;;;7.50;46.80;;;;;;5037587;28;20408;-74
2021/12/05 14:54:37;;;;;;;4.43;2.97;;;7.40;46.30;;;;;;5031264;28;20412;-74
2021/12/05 14:57:08;;;;;;;6.38;3.20;;;7.40;46.90;;;;;;5016707;28;20417;-75
2021/12/05 14:59:34;;;;;;;6.22;3.50;;;7.30;47.50;;;;;;5027006;28;20490;-74
2021/12/05 15:02:00;;;;;;;3.28;2.60;;;7.30;47.20;;;;;;5022688;28;20894;-75
2021/12/05 15:04:34;;;;;;;3.15;2.60;;;7.20;47.30;;;;;;5014212;28;20450;-73
2021/12/05 15:06:59;;;;;;;5.38;2.22;;;7.10;48.10;;;;;;5018049;28;20416;-74
2021/12/05 15:09:27;;;;;;;5.17;2.90;;;7.30;46.10;;;;;;5018613;28;20888;-74
2021/12/05 15:11:57;;;;;;;3.00;2.50;;;7.00;47.50;;;;;;5045032;28;20458;-73
2021/12/05 15:14:24;;;;;;;3.83;3.00;;;7.10;47.10;;;;;;5044257;28;20457;-74
2021/12/05 15:16:56;;;;;;;5.25;2.47;;;6.90;48.50;;;;;;5044328;28;20935;-74
2021/12/05 15:19:22;;;;;;;3.47;2.60;;;6.80;49.30;;;;;;5015677;28;20419;-74
2021/12/05 15:21:48;;;;;;;4.63;2.55;;;6.70;49.90;;;;;;5039215;28;20445;-74
2021/12/05 15:24:16;;;;;;;2.47;2.28;;;6.70;49.90;;;;;;5029903;28;20932;-74
2021/12/05 15:26:42;;;;;;;2.80;2.50;;;6.70;49.90;;;;;;5025213;28;20427;-74
2021/12/05 15:29:09;;;;;;;7.40;2.50;;;6.60;50.60;;;;;;5029391;28;20453;-74
2021/12/05 15:31:40;;;;;;;7.68;3.70;;;6.60;50.30;;;;;;5024874;28;20555;-73
2021/12/05 15:34:26;;;;;;;3.30;2.40;;;6.60;51.30;;;;;;5019897;28;20493;-74
2021/12/05 15:36:53;;;;;;;5.78;2.33;;;6.60;51.00;;;;;;5023630;28;20429;-75
2021/12/05 15:39:24;;;;;;;3.80;2.10;;;6.60;51.40;;;;;;5034172;28;20786;-74
2021/12/05 15:41:53;;;;;;;4.38;2.70;;;6.50;51.70;;;;;;5046359;28;20488;-74
2021/12/05 15:44:24;;;;;;;4.30;2.58;;;6.50;52.10;;;;;;5050448;28;20488;-73
2021/12/05 15:46:50;;;;;;;4.85;3.40;;;6.40;52.90;;;;;;5019136;28;20451;-74
2021/12/05 15:49:15;;;;;;;3.13;2.83;;;6.30;53.70;;;;;;5030386;28;20426;-73
2021/12/05 15:51:41;;;;;;;3.87;2.80;;;6.20;54.70;;;;;;5017367;28;20755;-73
2021/12/05 15:54:06;;;;;;;5.10;3.13;;;6.30;54.70;;;;;;5031202;28;20401;-73
2021/12/05 15:56:32;;;;;;;3.50;3.20;;;6.20;55.40;;;;;;5024634;28;20409;-74
2021/12/05 15:59:02;;;;;;;7.32;3.10;;;6.20;55.70;;;;;;5014042;28;20408;-74
2021/12/05 16:01:29;;;;;;;4.63;3.00;;;6.20;55.90;;;;;;5036882;28;20427;-73
2021/12/05 16:03:58;;;;;;;8.60;4.22;;;6.20;56.20;;;;;;5025526;28;20403;-74
2021/12/05 16:06:37;;;;;;;4.13;3.00;;;6.20;56.80;;;;;;5032514;28;20413;-75
2021/12/05 16:09:23;;;;;;;4.47;3.20;;;6.20;56.30;;;;;;5029992;28;20748;-75
2021/12/05 16:11:51;;;;;;;4.40;2.53;;;6.10;55.90;;;;;;5025375;28;20773;-73
2021/12/05 16:14:32;;;;;;;6.47;3.37;;;6.20;54.70;;;;;;5039375;28;20457;-73
2021/12/05 16:16:58;;;;;;;7.80;4.00;;;6.10;55.70;;;;;;5040046;28;20825;-75
2021/12/05 16:19:24;;;;;;;4.65;3.70;;;6.10;56.10;;;;;;5041693;28;20414;-74
2021/12/05 16:21:52;;;;;;;6.20;4.25;;;6.00;56.60;;;;;;5032238;28;20463;-74
2021/12/05 16:24:23;;;;;;;4.93;3.03;;;6.00;57.50;;;;;;5037374;28;20414;-75
2021/12/05 16:26:51;;;;;;;4.72;3.40;;;6.10;56.80;;;;;;5030338;28;20403;-75
2021/12/05 16:29:23;;;;;;;4.90;3.30;;;6.20;56.60;;;;;;5043021;28;20418;-76
2021/12/05 16:31:56;;;;;;;4.57;3.50;;;6.30;56.50;;;;;;5027908;28;20415;-75
2021/12/05 16:34:25;;;;;;;6.57;4.00;;;6.30;55.70;;;;;;5026706;28;20408;-75
2021/12/05 16:36:58;;;;;;;7.70;4.82;;;6.10;56.40;;;;;;5027155;28;20436;-76
2021/12/05 16:39:34;;;;;;;7.13;4.70;;;6.00;57.80;;;;;;5032863;28;20538;-76
2021/12/05 16:42:03;;;;;;;6.63;4.00;;;5.90;59.20;;;;;;5027291;28;20880;-75
2021/12/05 16:44:33;;;;;;;6.97;4.13;;;6.00;60.10;;;;;;5028393;28;20416;-74
2021/12/05 16:47:03;;;;;;;4.25;3.90;;;6.10;59.90;;;;;;5025593;28;20412;-74
2021/12/05 16:49:33;;;;;;;9.60;4.90;;;6.10;60.00;;;;;;5032082;28;20937;-74
2021/12/05 16:52:05;;;;;;;6.03;4.43;;;6.40;59.00;;;;;;5038558;28;20396;-75
2021/12/05 16:54:45;;;;;;;8.32;5.00;;;6.30;58.50;;;;;;5031392;28;20418;-75
2021/12/05 16:57:18;;;;;;;7.63;5.15;;;6.20;59.30;;;;;;5053044;28;20405;-75
2021/12/05 16:59:47;;;;;;;7.10;4.60;;;6.30;58.10;;;;;;5029099;28;20480;-75
2021/12/05 17:02:42;;;;;;;5.85;5.28;;;6.60;55.70;;;;;;5029579;28;20408;-74
2021/12/05 17:05:22;;;;;;;8.27;5.00;;;6.70;54.30;;;;;;5031997;28;21010;-75
2021/12/05 17:10:51;;;;;;;7.75;5.10;;;6.90;52.30;;;;;;5048874;28;20401;-76
2021/12/05 17:13:16;;;;;;;6.25;4.60;;;6.70;53.50;;;;;;5056387;28;20397;-75
2021/12/05 17:15:54;;;;;;;5.13;4.57;;;6.60;54.60;;;;;;5026241;28;20491;-76
2021/12/05 17:18:46;;;;;;;8.05;4.80;;;6.70;53.30;;;;;;5026826;28;20425;-76
2021/12/05 17:21:30;;;;;;;8.60;4.70;;;6.60;53.20;;;;;;5028041;28;20396;-75
2021/12/05 17:24:12;;;;;;;10.05;5.05;;;6.80;52.40;;;;;;5023870;28;20426;-75
2021/12/05 17:26:41;;;;;;;10.10;5.72;;;6.80;52.50;;;;;;5042978;28;20417;-75
2021/12/05 17:29:12;;;;;;;5.43;4.55;;;6.70;52.90;;;;;;5036544;28;20799;-76
2021/12/05 17:31:45;;;;;;;8.77;5.37;;;6.60;54.50;;;;;;5038519;28;20484;-76
2021/12/05 17:34:22;;;;;;;10.25;5.35;;;6.60;55.10;;;;;;5013109;28;20397;-75
2021/12/05 17:37:03;;;;;;;10.30;5.40;;;6.50;56.50;;;;;;5038851;28;20410;-76
2021/12/05 17:39:42;;;;;;;8.27;5.20;;;6.40;57.70;;;;;;5015685;28;20407;-75
2021/12/05 17:42:11;;;;;;;9.45;5.80;;;6.40;58.40;;;;;;5046500;28;20807;-76
2021/12/05 17:44:38;;;;;;;9.20;4.90;;;6.40;58.50;;;;;;5033018;28;20406;-77
2021/12/05 17:47:12;;;;;;;16.42;6.57;;;6.40;59.00;;;;;;5043306;28;20500;-76
2021/12/05 17:49:40;;;;;;;11.05;5.32;;;6.30;60.40;;;;;;5034572;28;20389;-76
2021/12/05 17:52:08;;;;;;;11.57;6.07;;;6.30;61.70;;;;;;5024191;28;20482;-75
2021/12/05 17:54:40;;;;;;;7.82;5.50;;;6.20;62.40;;;;;;5023324;28;20395;-76
2021/12/05 17:57:11;;;;;;;11.38;6.10;;;6.20;62.80;;;;;;5032770;28;20420;-75
2021/12/05 18:05:06;;;;;;;9.57;6.00;;;6.20;61.70;;;;;;5031928;28;20418;-75
2021/12/05 18:07:32;;;;;;;9.68;6.30;;;6.20;63.40;;;;;;5023949;28;20394;-77
2021/12/05 18:09:58;;;;;;;13.10;6.45;;;6.20;63.80;;;;;;5033340;28;20402;-76
2021/12/05 18:12:33;;;;;;;10.40;5.60;;;6.10;64.90;;;;;;5020225;28;20407;-78
2021/12/05 18:15:00;;;;;;;12.27;6.45;;;6.20;67.10;;;;;;5033912;28;20405;-77
2021/12/05 18:17:25;;;;;;;12.65;5.65;;;6.30;66.30;;;;;;5023162;28;20409;-76
2021/12/05 18:19:51;;;;;;;9.02;5.55;;;6.20;66.10;;;;;;5036909;28;20404;-77
2021/12/05 18:22:17;;;;;;;11.35;5.65;;;6.20;66.00;;;;;;5013581;28;20400;-77
2021/12/05 18:24:44;;;;;;;6.60;4.90;;;6.30;65.90;;;;;;5014196;28;20404;-76
2021/12/05 18:27:11;;;;;;;7.10;5.20;;;6.30;64.60;;;;;;5019766;28;20424;-77
2021/12/05 18:29:37;;;;;;;6.40;5.07;;;6.30;65.00;;;;;;5027119;28;20500;-77
2021/12/05 18:32:03;;;;;;;11.93;5.45;;;6.20;66.60;;;;;;5013782;28;20460;-76
2021/12/05 18:34:30;;;;;;;8.77;5.10;;;6.10;68.20;;;;;;5035554;28;20910;-77
2021/12/05 18:36:59;;;;;;;8.18;4.53;;;6.10;68.80;;;;;;5041580;28;20407;-77